Time;durP1;ratioP1;P1;durP2;ratioP2;P2;SDS_P1;SDS_P2;PMS_P1;PMS_P2;Temp;Humidity;BMP_temperature;BMP_pressure;BME280_temperature;BME280_humidity;BME280_pressure;Samples;Min_cycle;Max_cycle;Signal;HPM_P1;HPM_P2
2022/07/13 00:01:57;;;;;;;2.60;1.83;;;;;;;19.88;58.22;156473.44;5073005;28;20825;-76
2022/07/13 00:04:24;;;;;;;1.80;1.70;;;;;;;19.83;58.77;156460.41;5071962;28;20842;-76
2022/07/13 00:06:51;;;;;;;2.30;2.10;;;;;;;19.77;58.73;156444.75;5105570;28;20469;-77
2022/07/13 00:09:19;;;;;;;2.07;1.87;;;;;;;19.73;58.58;156434.28;5070466;28;20533;-77
2022/07/13 00:11:45;;;;;;;4.90;2.17;;;;;;;19.71;58.78;156430.41;5074885;28;20505;-76
2022/07/13 00:14:12;;;;;;;2.30;2.10;;;;;;;19.71;58.85;156430.41;5071771;28;20452;-76
2022/07/13 00:16:39;;;;;;;2.87;1.43;;;;;;;19.72;59.24;156433.03;5075682;28;20578;-76
2022/07/13 00:19:05;;;;;;;3.20;1.80;;;;;;;19.70;59.47;156426.47;5086701;28;20446;-76
2022/07/13 00:21:33;;;;;;;1.90;1.80;;;;;;;19.70;59.71;156427.78;5070773;28;20446;-77
2022/07/13 00:24:00;;;;;;;2.53;2.33;;;;;;;19.69;59.62;156423.88;5097530;28;20534;-76
2022/07/13 00:26:28;;;;;;;2.17;1.93;;;;;;;19.69;59.95;156423.88;5059499;28;20948;-76
2022/07/13 00:28:55;;;;;;;3.77;1.90;;;;;;;19.67;60.13;156418.69;5069446;28;20886;-77
2022/07/13 00:31:22;;;;;;;2.20;2.00;;;;;;;19.64;60.48;156410.84;5081109;28;20529;-76
2022/07/13 00:33:48;;;;;;;2.33;2.00;;;;;;;19.61;60.95;156403.03;5072074;28;21005;-77
2022/07/13 00:36:15;;;;;;;2.57;2.10;;;;;;;19.59;61.10;156397.81;5041043;28;20439;-77
2022/07/13 00:38:42;;;;;;;2.13;1.93;;;;;;;19.54;61.62;156384.78;5072031;28;20464;-83
2022/07/13 00:41:08;;;;;;;2.60;2.20;;;;;;;19.50;61.76;156374.34;5087669;28;20495;-82
2022/07/13 00:43:36;;;;;;;4.83;2.23;;;;;;;19.46;62.37;156363.94;5072759;28;20906;-82
2022/07/13 00:46:03;;;;;;;1.63;1.50;;;;;;;19.41;62.67;156353.47;5097882;28;20503;-82
2022/07/13 00:48:30;;;;;;;2.10;1.90;;;;;;;19.36;62.55;156339.09;5079365;28;20584;-82
2022/07/13 00:50:57;;;;;;;2.90;1.83;;;;;;;19.32;62.55;156330.00;5069482;28;20442;-82
2022/07/13 00:53:24;;;;;;;2.60;2.40;;;;;;;19.29;62.70;156322.16;5071938;28;20550;-82
2022/07/13 00:55:51;;;;;;;2.17;2.00;;;;;;;19.28;62.95;156319.53;5070952;28;20442;-82
2022/07/13 00:58:18;;;;;;;2.20;2.00;;;;;;;19.27;62.91;156315.66;5103626;28;20465;-82
2022/07/13 01:00:46;;;;;;;2.47;2.00;;;;;;;19.22;62.98;156302.63;5051196;28;20850;-82
2022/07/13 01:03:13;;;;;;;1.83;1.63;;;;;;;19.17;62.90;156290.88;5048895;28;20898;-82
2022/07/13 01:05:40;;;;;;;2.07;1.87;;;;;;;19.18;63.06;156293.50;5088208;28;20939;-82
2022/07/13 01:08:08;;;;;;;2.27;2.03;;;;;;;19.21;62.95;156300.00;5089301;28;20606;-82
2022/07/13 01:10:35;;;;;;;2.43;1.67;;;;;;;19.22;63.08;156302.63;5049634;28;20469;-82
2022/07/13 01:13:02;;;;;;;2.10;1.90;;;;;;;19.24;63.00;156309.13;5053762;28;20520;-82
2022/07/13 01:15:29;;;;;;;1.90;1.70;;;;;;;19.24;62.89;156307.84;5067282;28;20446;-82
2022/07/13 01:17:57;;;;;;;2.37;2.10;;;;;;;19.22;63.61;156303.88;5084689;28;20454;-82
2022/07/13 01:20:25;;;;;;;2.00;1.80;;;;;;;19.08;63.53;156267.44;5070525;28;20471;-82
2022/07/13 01:22:53;;;;;;;2.03;1.70;;;;;;;19.02;63.89;156251.78;5060744;28;21020;-82
2022/07/13 01:25:21;;;;;;;2.20;2.00;;;;;;;19.01;64.62;156247.91;5058497;28;20455;-82
2022/07/13 01:27:48;;;;;;;2.70;2.23;;;;;;;18.95;64.38;156233.56;5059322;28;20839;-82
2022/07/13 01:30:15;;;;;;;3.17;2.30;;;;;;;18.92;64.68;156224.41;5051390;28;20459;-82
2022/07/13 01:32:43;;;;;;;2.97;2.20;;;;;;;18.89;64.75;156217.91;5051520;28;20519;-82
2022/07/13 01:35:10;;;;;;;2.97;1.90;;;;;;;18.88;64.82;156215.28;5103602;28;20448;-82
2022/07/13 01:37:37;;;;;;;2.80;2.17;;;;;;;18.84;64.80;156204.88;5071397;28;20703;-82
2022/07/13 01:40:05;;;;;;;3.23;2.07;;;;;;;18.82;64.40;156200.94;5083686;28;20549;-82
2022/07/13 01:42:40;;;;;;;2.30;2.10;;;;;;;18.83;64.33;156202.25;5087565;28;20445;-82
2022/07/13 01:45:08;;;;;;;2.97;1.93;;;;;;;18.85;64.58;156207.47;5071262;28;20448;-82
2022/07/13 01:47:38;;;;;;;2.37;2.00;;;;;;;18.85;64.58;156207.47;5067682;28;20480;-82
2022/07/13 01:50:06;;;;;;;3.60;2.33;;;;;;;18.83;65.65;156203.56;5069715;28;20752;-82
2022/07/13 01:52:33;;;;;;;4.10;2.03;;;;;;;18.82;65.56;156199.69;5086020;28;20553;-82
2022/07/13 01:55:00;;;;;;;2.50;2.20;;;;;;;18.77;66.30;156186.66;5068086;28;20992;-82
2022/07/13 01:57:26;;;;;;;3.10;2.10;;;;;;;18.76;66.47;156185.34;5070308;28;20537;-81
2022/07/13 01:59:58;;;;;;;2.23;2.03;;;;;;;18.72;66.16;156174.91;5076059;28;20988;-82
2022/07/13 02:02:25;;;;;;;7.40;2.13;;;;;;;18.72;66.60;156173.59;5050023;28;20508;-82
2022/07/13 02:04:54;;;;;;;2.47;2.27;;;;;;;18.69;67.24;156165.81;5050777;28;20657;-82
2022/07/13 02:07:21;;;;;;;3.63;2.20;;;;;;;18.68;67.39;156163.19;5086052;28;20500;-82
2022/07/13 02:09:48;;;;;;;3.73;2.60;;;;;;;18.67;68.41;156161.88;5068495;28;20442;-82
2022/07/13 02:12:15;;;;;;;2.53;2.10;;;;;;;18.64;68.24;156152.75;5061456;28;20442;-82
2022/07/13 02:14:42;;;;;;;2.80;2.40;;;;;;;18.63;67.84;156151.47;5053333;28;20537;-82
2022/07/13 02:17:10;;;;;;;2.50;2.30;;;;;;;18.64;68.24;156152.75;5087169;28;20531;-82
2022/07/13 02:19:37;;;;;;;2.43;2.23;;;;;;;18.59;68.63;156141.03;5069776;28;20499;-82
2022/07/13 02:22:04;;;;;;;2.70;2.40;;;;;;;18.56;68.64;156133.19;5071239;28;20446;-82
2022/07/13 02:24:33;;;;;;;3.50;2.33;;;;;;;18.52;68.88;156121.50;5070798;28;20499;-82
2022/07/13 02:27:00;;;;;;;3.30;2.30;;;;;;;18.47;68.83;156109.78;5072948;28;20433;-82
2022/07/13 02:29:27;;;;;;;6.10;2.80;;;;;;;18.48;69.67;156111.09;5105675;28;20434;-82
2022/07/13 02:31:54;;;;;;;4.90;2.37;;;;;;;18.45;69.30;156103.22;5091032;28;20473;-82
2022/07/13 02:34:27;;;;;;;2.53;2.33;;;;;;;18.41;69.38;156092.78;5057556;28;20445;-82
2022/07/13 02:36:54;;;;;;;3.57;2.60;;;;;;;18.40;70.29;156091.47;5074262;28;20432;-82
2022/07/13 02:39:20;;;;;;;3.47;2.57;;;;;;;18.36;70.42;156079.75;5104371;28;20511;-82
2022/07/13 02:41:47;;;;;;;2.47;2.27;;;;;;;18.37;70.52;156082.38;5074092;28;20933;-82
2022/07/13 02:44:14;;;;;;;3.63;3.27;;;;;;;18.29;71.54;156061.53;5107391;28;20503;-82
2022/07/13 02:46:41;;;;;;;2.83;2.63;;;;;;;18.22;71.68;156045.91;5078204;28;20492;-82
2022/07/13 02:49:08;;;;;;;3.13;2.83;;;;;;;18.17;71.86;156032.88;5078975;28;20833;-82
2022/07/13 02:51:37;;;;;;;5.40;2.83;;;;;;;18.17;72.37;156032.88;5087021;28;20451;-82
2022/07/13 02:54:05;;;;;;;6.10;2.40;;;;;;;18.17;72.64;156032.88;5074280;28;20449;-82
2022/07/13 02:56:33;;;;;;;2.40;2.20;;;;;;;18.21;72.10;156043.28;5074485;28;20536;-82
2022/07/13 02:59:00;;;;;;;3.13;2.87;;;;;;;18.21;71.60;156042.00;5106422;28;20478;-82
2022/07/13 03:01:27;;;;;;;3.03;2.50;;;;;;;18.19;72.04;156038.09;5076222;28;20941;-82
2022/07/13 03:03:54;;;;;;;3.07;2.77;;;;;;;18.14;71.84;156023.75;5038336;28;20519;-82
2022/07/13 03:06:21;;;;;;;2.90;2.37;;;;;;;18.05;72.48;156000.34;5091408;28;20810;-82
2022/07/13 03:08:49;;;;;;;2.93;2.63;;;;;;;17.98;72.31;155983.38;5099667;28;20487;-82
2022/07/13 03:11:16;;;;;;;2.80;2.50;;;;;;;17.95;72.66;155974.31;5089949;28;20473;-82
2022/07/13 03:13:43;;;;;;;3.53;2.53;;;;;;;17.91;72.82;155965.16;5073531;28;20462;-82
2022/07/13 03:16:09;;;;;;;2.70;2.50;;;;;;;17.96;72.68;155976.88;5074283;28;20481;-82
2022/07/13 03:18:36;;;;;;;3.33;2.57;;;;;;;17.99;72.49;155984.69;5089474;28;20457;-82
2022/07/13 03:21:03;;;;;;;3.50;2.80;;;;;;;18.01;72.70;155991.22;5071974;28;20928;-82
2022/07/13 03:23:30;;;;;;;2.67;2.47;;;;;;;17.99;72.77;155984.69;5055505;28;20563;-82
2022/07/13 03:25:58;;;;;;;3.77;2.73;;;;;;;17.94;73.13;155973.00;5092106;28;20485;-82
2022/07/13 03:28:24;;;;;;;2.93;2.73;;;;;;;17.84;73.74;155946.97;5071124;28;20484;-82
2022/07/13 03:30:51;;;;;;;3.10;2.70;;;;;;;17.78;74.28;155931.31;5083815;28;20450;-82
2022/07/13 03:33:18;;;;;;;3.23;2.70;;;;;;;17.72;74.41;155914.38;5092531;28;20454;-82
2022/07/13 03:35:45;;;;;;;2.90;2.60;;;;;;;17.75;74.34;155922.19;5072273;28;20948;-81
2022/07/13 03:38:12;;;;;;;3.20;2.60;;;;;;;17.77;74.09;155927.38;5077671;28;20460;-82
2022/07/13 03:40:38;;;;;;;3.30;2.33;;;;;;;17.76;74.54;155924.81;5071151;28;21033;-82
2022/07/13 03:43:07;;;;;;;3.40;3.10;;;;;;;17.72;74.03;155914.38;5054285;28;20887;-81
2022/07/13 03:45:35;;;;;;;3.20;2.87;;;;;;;17.69;74.59;155907.88;5054731;28;20538;-82
2022/07/13 03:48:02;;;;;;;2.83;2.57;;;;;;;17.65;74.72;155897.47;5072636;28;20827;-82
2022/07/13 03:50:29;;;;;;;3.00;2.70;;;;;;;17.65;75.28;155897.47;5089479;28;20533;-82
2022/07/13 03:52:55;;;;;;;2.70;2.50;;;;;;;17.65;75.41;155897.47;5088292;28;20472;-81
2022/07/13 03:55:23;;;;;;;4.60;2.40;;;;;;;17.67;75.35;155902.69;5088786;28;20462;-81
2022/07/13 03:57:50;;;;;;;2.50;2.30;;;;;;;17.69;75.21;155907.88;5081992;28;20798;-81
2022/07/13 04:00:21;;;;;;;2.80;2.50;;;;;;;17.71;75.26;155911.81;5092510;28;20465;-82
2022/07/13 04:02:52;;;;;;;4.03;3.20;;;;;;;17.72;74.80;155915.69;5075661;28;20445;-81
2022/07/13 04:05:20;;;;;;;3.43;2.50;;;;;;;17.75;74.71;155922.19;5053937;28;20458;-82
2022/07/13 04:07:47;;;;;;;2.20;2.00;;;;;;;17.78;74.30;155931.31;5039919;28;20478;-82
2022/07/13 04:10:14;;;;;;;2.60;2.40;;;;;;;17.80;73.98;155936.53;5089404;28;20450;-82
2022/07/13 04:12:42;;;;;;;2.83;2.57;;;;;;;17.81;73.99;155939.16;5063726;28;20454;-82
2022/07/13 04:15:09;;;;;;;3.00;2.43;;;;;;;17.83;73.53;155944.34;5087662;28;20461;-82
2022/07/13 04:17:38;;;;;;;3.03;2.73;;;;;;;17.84;73.92;155946.97;5086897;28;20461;-82
2022/07/13 04:20:06;;;;;;;3.10;2.17;;;;;;;17.91;73.60;155965.16;5054521;28;20444;-82
2022/07/13 04:22:33;;;;;;;3.00;2.30;;;;;;;18.03;73.33;155996.41;5086359;28;20458;-82
2022/07/13 04:25:00;;;;;;;2.67;2.40;;;;;;;18.27;73.01;156058.91;5085021;28;20499;-82
2022/07/13 04:27:27;;;;;;;2.77;2.30;;;;;;;18.56;72.24;156131.94;5104977;28;20450;-82
2022/07/13 04:29:54;;;;;;;2.43;2.23;;;;;;;18.78;71.19;156190.53;5104680;27;20470;-82
2022/07/13 04:32:21;;;;;;;4.30;2.20;;;;;;;18.89;70.19;156217.91;5072334;28;20889;-82
2022/07/13 04:34:49;;;;;;;3.60;2.23;;;;;;;18.97;70.20;156237.44;5054987;28;20537;-82
2022/07/13 04:37:16;;;;;;;2.60;2.00;;;;;;;19.12;69.61;156277.84;5070379;28;20453;-81
2022/07/13 04:39:44;;;;;;;2.07;1.80;;;;;;;19.35;68.68;156336.50;5081375;28;20446;-82
2022/07/13 04:42:11;;;;;;;4.33;2.03;;;;;;;19.64;67.65;156410.84;5051781;28;20461;-82
2022/07/13 04:44:39;;;;;;;2.20;2.00;;;;;;;19.94;66.51;156490.38;5087072;28;20450;-82
2022/07/13 04:47:05;;;;;;;2.50;2.00;;;;;;;20.20;65.55;156556.84;5107305;27;20488;-82
2022/07/13 04:49:33;;;;;;;3.00;2.10;;;;;;;20.41;64.78;156611.69;5073679;28;20476;-82
2022/07/13 04:52:01;;;;;;;2.10;1.90;;;;;;;20.63;64.12;156669.09;5076313;28;20703;-81
2022/07/13 04:54:30;;;;;;;4.40;2.70;;;;;;;20.87;63.43;156729.09;5070969;28;20472;-81
2022/07/13 04:56:58;;;;;;;2.93;2.10;;;;;;;21.16;62.89;156806.16;5054027;28;20454;-83
2022/07/13 04:59:26;;;;;;;2.93;2.13;;;;;;;21.41;62.23;156870.13;5052776;28;20473;-82
2022/07/13 05:01:53;;;;;;;2.90;2.60;;;;;;;21.54;61.94;156902.75;5064513;28;20454;-82
2022/07/13 05:04:20;;;;;;;4.63;2.67;;;;;;;21.88;61.36;156990.25;5058302;28;21007;-82
2022/07/13 05:06:48;;;;;;;3.10;2.80;;;;;;;22.00;60.54;157022.88;5072460;28;20571;-82
2022/07/13 05:09:16;;;;;;;2.87;2.67;;;;;;;21.96;60.74;157012.47;5072410;28;20464;-82
2022/07/13 05:11:44;;;;;;;3.40;3.10;;;;;;;22.05;59.74;157036.00;5087659;28;20442;-82
2022/07/13 05:14:11;;;;;;;4.77;2.80;;;;;;;22.16;59.73;157063.41;5054505;28;20441;-82
2022/07/13 05:16:38;;;;;;;3.73;3.00;;;;;;;22.48;59.15;157145.69;5088649;28;20446;-82
2022/07/13 05:19:06;;;;;;;2.77;2.47;;;;;;;22.69;58.45;157201.88;5054912;28;20507;-82
2022/07/13 05:21:37;;;;;;;3.23;2.57;;;;;;;22.67;58.20;157196.66;5051580;28;20458;-82
2022/07/13 05:24:05;;;;;;;5.90;2.27;;;;;;;22.97;56.42;157273.75;5098702;28;20446;-82
2022/07/13 05:26:33;;;;;;;2.70;2.27;;;;;;;23.09;56.32;157305.09;5065770;28;20480;-82
2022/07/13 05:29:02;;;;;;;3.03;1.87;;;;;;;23.10;55.60;157307.72;5066773;28;20475;-82
2022/07/13 05:31:30;;;;;;;2.30;2.00;;;;;;;23.39;55.66;157382.28;5070460;28;20434;-82
2022/07/13 05:33:57;;;;;;;2.60;2.40;;;;;;;23.65;54.97;157450.25;5071135;28;20507;-82
2022/07/13 05:36:29;;;;;;;3.13;2.47;;;;;;;23.74;54.64;157473.78;5054584;28;20447;-82
2022/07/13 05:38:56;;;;;;;4.57;2.77;;;;;;;23.93;54.90;157522.16;5068498;28;20457;-82
2022/07/13 05:41:22;;;;;;;3.37;2.60;;;;;;;24.16;54.19;157583.69;5077376;28;20479;-82
2022/07/13 05:43:50;;;;;;;4.53;2.43;;;;;;;24.37;53.62;157637.28;5054273;28;20503;-82
2022/07/13 05:46:18;;;;;;;2.77;1.90;;;;;;;24.57;52.75;157688.31;5087736;28;20442;-83
2022/07/13 05:48:45;;;;;;;2.43;2.23;;;;;;;24.69;52.49;157721.00;5086883;28;20470;-83
2022/07/13 05:51:12;;;;;;;2.80;2.00;;;;;;;24.85;52.42;157761.59;5082432;28;20495;-82
2022/07/13 05:53:39;;;;;;;2.10;1.90;;;;;;;25.16;50.95;157841.41;5053669;28;20616;-82
2022/07/13 05:56:08;;;;;;;4.93;2.10;;;;;;;25.30;50.88;157879.38;5068970;28;20948;-82
2022/07/13 05:58:35;;;;;;;2.07;1.87;;;;;;;25.37;50.05;157897.69;5068857;28;20551;-82
2022/07/13 06:01:03;;;;;;;3.00;2.10;;;;;;;25.13;51.12;157834.84;5065992;28;20430;-82
2022/07/13 06:03:30;;;;;;;2.37;2.10;;;;;;;25.12;50.57;157832.28;5070799;28;20485;-83
2022/07/13 06:05:56;;;;;;;5.17;2.10;;;;;;;25.03;50.80;157808.69;5099728;28;20435;-82
2022/07/13 06:08:23;;;;;;;1.83;1.73;;;;;;;24.94;51.90;157785.13;5067458;28;20488;-82
2022/07/13 06:10:52;;;;;;;3.60;2.40;;;;;;;24.97;51.30;157793.00;5070331;28;20767;-83
2022/07/13 06:13:19;;;;;;;3.37;2.37;;;;;;;24.98;50.71;157794.31;5050504;28;20933;-83
2022/07/13 06:15:46;;;;;;;4.20;2.20;;;;;;;25.06;50.38;157816.56;5070720;28;20453;-82
2022/07/13 06:18:14;;;;;;;2.90;2.10;;;;;;;24.92;51.07;157778.59;5080089;28;20851;-83
2022/07/13 06:20:40;;;;;;;2.63;2.43;;;;;;;24.72;51.70;157727.53;5067242;28;20433;-83
2022/07/13 06:23:10;;;;;;;3.57;1.80;;;;;;;24.40;52.61;157645.13;5072565;28;20430;-83
2022/07/13 06:25:37;;;;;;;2.73;2.00;;;;;;;24.18;53.57;157587.56;5103278;28;20442;-83
2022/07/13 06:28:04;;;;;;;2.60;1.97;;;;;;;23.86;53.73;157505.16;5070713;28;20536;-84
2022/07/13 06:30:31;;;;;;;2.33;2.07;;;;;;;23.75;54.08;157476.38;5069833;28;20505;-84
2022/07/13 06:32:58;;;;;;;2.43;2.10;;;;;;;23.63;54.36;157446.34;5077458;28;20773;-83
2022/07/13 06:35:27;;;;;;;3.97;2.33;;;;;;;23.52;55.44;157417.56;5103448;28;20868;-84
2022/07/13 06:37:54;;;;;;;3.40;2.60;;;;;;;23.58;55.67;157431.97;5071933;28;20450;-84
2022/07/13 06:40:20;;;;;;;2.30;2.10;;;;;;;23.55;55.79;157424.09;5067427;28;20450;-83
2022/07/13 06:42:47;;;;;;;6.90;2.20;;;;;;;23.36;55.64;157375.69;5054114;28;20438;-84
2022/07/13 06:45:16;;;;;;;4.83;2.07;;;;;;;23.29;56.25;157357.41;5070229;28;20801;-83
2022/07/13 06:47:43;;;;;;;3.60;2.57;;;;;;;23.18;55.90;157328.66;5067865;28;20481;-84
2022/07/13 06:50:10;;;;;;;3.70;1.90;;;;;;;23.37;54.62;157377.06;5070221;28;20474;-84
2022/07/13 06:52:40;;;;;;;3.57;2.33;;;;;;;23.50;54.43;157411.03;5066677;28;20548;-84
2022/07/13 06:55:08;;;;;;;5.20;2.30;;;;;;;23.59;54.16;157435.84;5072728;28;20429;-84
2022/07/13 06:57:35;;;;;;;3.20;2.00;;;;;;;23.70;52.96;157463.31;5070734;28;20842;-83
2022/07/13 07:00:02;;;;;;;2.70;2.23;;;;;;;23.85;52.53;157501.25;5070800;28;20434;-84
2022/07/13 07:02:29;;;;;;;3.10;2.37;;;;;;;24.28;51.95;157613.72;5050396;28;20476;-84
2022/07/13 07:04:56;;;;;;;3.73;2.13;;;;;;;24.52;51.28;157675.19;5071141;28;20836;-83
2022/07/13 07:07:23;;;;;;;7.00;2.60;;;;;;;24.68;50.78;157717.06;5086755;28;20455;-83
2022/07/13 07:09:51;;;;;;;5.20;2.70;;;;;;;24.87;51.25;157766.84;5072032;28;20473;-83
2022/07/13 07:12:18;;;;;;;3.77;2.23;;;;;;;25.25;49.08;157866.28;5083944;28;20442;-83
2022/07/13 07:14:45;;;;;;;4.90;2.47;;;;;;;25.72;48.38;157986.72;5054571;28;20446;-83
2022/07/13 07:17:11;;;;;;;4.13;2.50;;;;;;;25.95;48.27;158046.94;5073931;28;20519;-83
2022/07/13 07:19:38;;;;;;;5.13;2.30;;;;;;;26.27;47.91;158130.81;5107902;28;20469;-84
2022/07/13 07:22:06;;;;;;;5.10;2.60;;;;;;;26.71;47.14;158243.44;5105555;28;20463;-84
2022/07/13 07:24:33;;;;;;;5.80;2.83;;;;;;;27.15;46.36;158358.78;5074809;28;20438;-84
2022/07/13 07:27:02;;;;;;;5.97;2.43;;;;;;;27.53;46.38;158458.44;5089890;28;20427;-84
2022/07/13 07:29:29;;;;;;;5.03;2.33;;;;;;;27.80;44.76;158529.16;5073727;28;20503;-84
2022/07/13 07:31:55;;;;;;;4.30;2.07;;;;;;;27.98;44.58;158573.75;5065963;28;20910;-84
2022/07/13 07:34:22;;;;;;;2.00;1.80;;;;;;;28.12;44.24;158611.81;5095639;28;20438;-84
2022/07/13 07:36:49;;;;;;;3.70;1.80;;;;;;;28.44;44.00;158694.41;5068637;28;20446;-84
2022/07/13 07:39:15;;;;;;;2.43;1.90;;;;;;;28.74;43.97;158771.84;5072657;28;20442;-84
2022/07/13 07:41:42;;;;;;;4.80;2.13;;;;;;;28.98;43.35;158836.13;5074823;28;20974;-84
2022/07/13 07:44:10;;;;;;;5.30;2.50;;;;;;;29.30;42.79;158918.81;5056403;28;20459;-84
2022/07/13 07:46:38;;;;;;;2.70;2.00;;;;;;;29.65;42.13;159009.38;5069156;28;20453;-84
2022/07/13 07:49:05;;;;;;;4.07;2.10;;;;;;;29.61;41.58;158997.53;5068097;28;20513;-84
2022/07/13 07:51:32;;;;;;;3.80;1.97;;;;;;;29.85;41.50;159061.91;5104228;28;20795;-84
2022/07/13 07:53:59;;;;;;;7.47;2.10;;;;;;;30.04;40.97;159111.78;5075086;28;20525;-84
2022/07/13 07:56:26;;;;;;;5.10;1.83;;;;;;;29.94;40.89;159085.53;5077778;28;20417;-84
2022/07/13 07:58:53;;;;;;;2.30;2.03;;;;;;;29.84;39.48;159059.25;5078427;28;20984;-84
2022/07/13 08:01:21;;;;;;;4.03;1.73;;;;;;;29.82;39.64;159054.00;5077586;28;20456;-84
2022/07/13 08:03:48;;;;;;;2.63;1.60;;;;;;;29.83;39.94;159056.66;5070783;28;20478;-84
2022/07/13 08:06:16;;;;;;;3.90;2.00;;;;;;;30.15;39.45;159139.34;5070876;28;20450;-79
2022/07/13 08:08:43;;;;;;;3.50;1.97;;;;;;;30.35;39.16;159190.50;5069519;28;20470;-77
2022/07/13 08:11:10;;;;;;;4.53;1.50;;;;;;;30.72;38.24;159287.72;5071327;28;20442;-77
2022/07/13 08:13:37;;;;;;;3.53;1.97;;;;;;;30.78;37.75;159303.50;5052961;28;20450;-77
2022/07/13 08:16:04;;;;;;;4.40;1.80;;;;;;;30.88;36.85;159329.75;5098694;27;20450;-77
2022/07/13 08:18:32;;;;;;;2.43;1.60;;;;;;;30.80;36.24;159308.72;5069223;28;20578;-77
2022/07/13 08:20:59;;;;;;;6.53;1.70;;;;;;;30.67;36.58;159275.91;5096146;28;20447;-76
2022/07/13 08:26:11;;;;;;;2.37;1.57;;;;;;;30.35;37.08;159191.84;5101531;27;20434;-77
2022/07/13 08:28:37;;;;;;;3.30;1.80;;;;;;;30.13;36.76;159135.38;5072478;28;20430;-77
2022/07/13 08:31:05;;;;;;;3.77;1.77;;;;;;;30.09;36.96;159124.91;5067920;28;20469;-77
2022/07/13 08:39:01;;;;;;;2.07;1.87;;;;;;;29.81;38.24;159051.38;5068057;28;20457;-76
2022/07/13 08:41:28;;;;;;;2.90;1.77;;;;;;;29.56;37.88;158985.72;5068632;28;20531;-76
2022/07/13 08:43:55;;;;;;;1.70;1.57;;;;;;;29.54;37.59;158980.50;5090061;28;20945;-78
2022/07/13 08:46:22;;;;;;;1.73;1.40;;;;;;;29.35;38.10;158930.63;5070074;28;20458;-77
2022/07/13 08:48:51;;;;;;;2.63;1.60;;;;;;;29.11;38.56;158867.59;5072387;28;20999;-76
2022/07/13 08:51:19;;;;;;;1.87;1.73;;;;;;;29.30;39.05;158918.81;5069921;28;20462;-76
2022/07/13 08:53:46;;;;;;;4.80;1.90;;;;;;;29.43;39.24;158952.94;5070576;28;20904;-76
2022/07/13 08:56:13;;;;;;;6.27;1.60;;;;;;;29.55;38.63;158983.09;5070910;28;20434;-76
2022/07/13 08:58:39;;;;;;;6.63;1.90;;;;;;;29.81;36.94;159050.09;5069467;28;20489;-76
2022/07/13 09:01:09;;;;;;;4.03;1.50;;;;;;;29.74;37.55;159031.63;5096591;28;20523;-76
2022/07/13 09:03:36;;;;;;;3.03;1.40;;;;;;;30.12;35.74;159131.47;5070977;28;20465;-76
2022/07/13 09:06:05;;;;;;;2.83;1.87;;;;;;;30.16;35.96;159143.25;5098434;27;20548;-77
2022/07/13 09:08:41;;;;;;;1.60;1.50;;;;;;;30.08;35.54;159122.25;5101800;28;20968;-79
2022/07/13 09:11:08;;;;;;;2.67;1.70;;;;;;;29.99;35.67;159098.66;5080823;28;20502;-77
2022/07/13 09:13:38;;;;;;;2.10;1.73;;;;;;;29.87;35.58;159067.13;5053007;28;20447;-79
2022/07/13 09:16:16;;;;;;;3.13;1.30;;;;;;;29.90;36.40;159073.69;5047574;28;20816;-79
2022/07/13 09:18:44;;;;;;;2.17;1.40;;;;;;;29.96;36.91;159089.47;5065953;28;20487;-77
2022/07/13 09:21:13;;;;;;;1.80;1.53;;;;;;;30.08;36.76;159122.25;5087292;28;20446;-79
2022/07/13 09:23:40;;;;;;;2.20;1.70;;;;;;;30.07;35.83;159119.66;5076270;28;20450;-78
2022/07/13 09:26:07;;;;;;;3.97;1.50;;;;;;;30.24;35.10;159161.63;5071269;28;20453;-78
2022/07/13 09:28:44;;;;;;;2.27;2.00;;;;;;;30.51;35.51;159233.91;5063707;28;20922;-78
2022/07/13 09:31:11;;;;;;;1.93;1.50;;;;;;;30.45;34.97;159218.13;5068395;28;20473;-78
2022/07/13 09:33:39;;;;;;;1.87;1.67;;;;;;;30.76;35.41;159298.25;5077729;28;20560;-78
2022/07/13 09:36:11;;;;;;;3.03;1.80;;;;;;;31.03;34.38;159369.19;5069086;28;20450;-78
2022/07/13 09:38:39;;;;;;;2.60;1.40;;;;;;;30.94;34.96;159345.56;5067878;28;20457;-78
2022/07/13 09:41:23;;;;;;;2.67;1.77;;;;;;;31.11;33.86;159390.19;5063660;28;20513;-76
2022/07/13 09:46:50;;;;;;;1.93;1.80;;;;;;;31.56;34.05;159505.88;5087451;28;20480;-77
2022/07/13 09:49:17;;;;;;;2.00;1.73;;;;;;;31.63;33.32;159524.25;5066142;28;20456;-77
2022/07/13 09:51:45;;;;;;;2.13;1.93;;;;;;;31.57;33.76;159508.47;5069446;28;20453;-74
2022/07/13 09:54:13;;;;;;;1.63;1.50;;;;;;;32.04;32.10;159630.75;5065896;28;20450;-78
2022/07/13 09:56:44;;;;;;;2.90;1.60;;;;;;;31.94;30.65;159605.69;5071320;28;20448;-81
2022/07/13 09:59:11;;;;;;;2.37;1.50;;;;;;;31.89;29.61;159592.56;5104019;28;20865;-81
2022/07/13 10:01:38;;;;;;;1.73;1.10;;;;;;;31.72;30.02;159547.91;5067087;28;20936;-81
2022/07/13 10:04:05;;;;;;;2.50;1.23;;;;;;;31.58;29.65;159511.13;5104217;28;20563;-81
2022/07/13 10:06:32;;;;;;;1.30;1.20;;;;;;;31.40;28.57;159463.78;5068758;28;20849;-81
2022/07/13 10:09:01;;;;;;;1.60;1.50;;;;;;;31.69;27.55;159540.03;5103920;28;20454;-81
2022/07/13 10:11:28;;;;;;;2.97;1.20;;;;;;;31.68;24.88;159537.38;5069394;28;20469;-81
2022/07/13 10:13:57;;;;;;;1.43;1.33;;;;;;;31.31;28.57;159442.75;5058390;28;20462;-81
2022/07/13 10:16:23;;;;;;;3.10;1.30;;;;;;;30.84;27.71;159319.25;5061003;28;20446;-81
2022/07/13 10:18:51;;;;;;;1.57;1.07;;;;;;;30.64;29.76;159266.72;5066983;28;20458;-81
2022/07/13 10:21:25;;;;;;;2.07;1.20;;;;;;;30.85;28.92;159321.84;5070214;28;21008;-81
2022/07/13 10:23:52;;;;;;;1.93;1.23;;;;;;;31.19;28.05;159411.22;5067413;28;20542;-81
2022/07/13 10:26:21;;;;;;;1.10;1.00;;;;;;;31.60;27.16;159517.69;5084484;28;20542;-81
2022/07/13 10:29:05;;;;;;;3.10;1.10;;;;;;;31.86;26.27;159586.00;5075462;28;20845;-81
2022/07/13 10:31:33;;;;;;;1.20;1.00;;;;;;;31.69;25.64;159540.03;5055826;28;20576;-81
2022/07/13 10:34:00;;;;;;;1.30;1.20;;;;;;;31.75;27.47;159555.75;5098325;28;20971;-81
2022/07/13 10:36:56;;;;;;;1.30;1.17;;;;;;;31.06;25.89;159377.06;5058922;28;20937;-81
2022/07/13 10:39:23;;;;;;;1.23;1.07;;;;;;;31.04;26.66;159370.50;5084137;28;20462;-81
2022/07/13 10:41:59;;;;;;;1.10;1.00;;;;;;;31.18;26.93;159407.28;5052605;28;20434;-81
2022/07/13 10:44:37;;;;;;;0.80;0.70;;;;;;;31.45;22.87;159478.25;5077883;28;20470;-81
2022/07/13 10:47:04;;;;;;;1.47;1.30;;;;;;;31.90;24.75;159595.22;5054158;28;20490;-81
2022/07/13 10:49:35;;;;;;;2.07;1.40;;;;;;;31.96;24.43;159610.94;5069220;28;21939;-82
2022/07/13 10:52:42;;;;;;;0.90;0.77;;;;;;;31.31;25.06;159442.75;5073413;28;20460;-81
2022/07/13 10:55:32;;;;;;;0.90;0.80;;;;;;;30.88;25.69;159329.75;5056411;28;20963;-81
2022/07/13 10:58:01;;;;;;;1.83;1.27;;;;;;;30.57;27.03;159248.34;5071986;28;20530;-80
2022/07/13 11:00:41;;;;;;;1.20;1.10;;;;;;;30.52;27.48;159235.22;5106493;28;20926;-81
2022/07/13 11:03:23;;;;;;;1.20;1.00;;;;;;;30.45;26.93;159216.81;5072226;28;20445;-81
2022/07/13 11:06:05;;;;;;;1.40;1.00;;;;;;;30.18;25.84;159148.50;5081532;28;20865;-81
2022/07/13 11:08:32;;;;;;;1.90;1.03;;;;;;;30.53;25.86;159237.81;5095370;28;20469;-84
2022/07/13 11:11:12;;;;;;;1.10;0.90;;;;;;;30.30;26.86;159178.72;5071790;28;20470;-80
2022/07/13 11:13:42;;;;;;;1.40;1.10;;;;;;;30.45;26.80;159218.13;5072793;28;20545;-81
2022/07/13 11:16:09;;;;;;;1.63;1.40;;;;;;;30.74;26.06;159292.97;5071568;28;20438;-81
2022/07/13 11:18:36;;;;;;;1.17;1.07;;;;;;;30.72;27.33;159287.72;5064016;28;20556;-80
2022/07/13 11:21:04;;;;;;;1.63;1.00;;;;;;;30.41;27.46;159206.31;5109153;27;20491;-80
2022/07/13 11:26:44;;;;;;;1.50;1.20;;;;;;;30.71;27.24;159285.13;5060212;28;20441;-81
2022/07/13 11:29:17;;;;;;;6.30;1.47;;;;;;;30.90;26.50;159334.97;5074922;28;20445;-80
2022/07/13 11:31:44;;;;;;;1.43;1.13;;;;;;;30.87;27.28;159327.09;5090475;28;20785;-81
2022/07/13 11:34:12;;;;;;;1.30;0.77;;;;;;;31.13;25.58;159394.16;5069022;28;20444;-81
2022/07/13 11:36:41;;;;;;;1.30;0.83;;;;;;;30.78;25.82;159303.50;5078361;28;20449;-81
2022/07/13 11:39:22;;;;;;;1.30;1.00;;;;;;;30.57;25.18;159248.34;5127319;27;20535;-81
2022/07/13 11:41:51;;;;;;;0.90;0.70;;;;;;;30.41;25.67;159206.31;5091069;27;20494;-80
2022/07/13 11:44:22;;;;;;;1.90;0.87;;;;;;;30.29;25.92;159174.78;5062113;28;20446;-80